sensor_id;sensor_type;location;lat;lon;timestamp;temperature;humidity
30949;HTU21D;17637;51.984;21.208;2022-07-29T00:04:21;14.14;13.41
30949;HTU21D;17637;51.984;21.208;2022-07-29T00:09:25;14.09;13.24
30949;HTU21D;17637;51.984;21.208;2022-07-29T00:14:30;14.06;13.25
30949;HTU21D;17637;51.984;21.208;2022-07-29T00:19:33;13.97;13.04
30949;HTU21D;17637;51.984;21.208;2022-07-29T00:24:37;13.96;11.16
30949;HTU21D;17637;51.984;21.208;2022-07-29T00:29:41;14.12;11.58
30949;HTU21D;17637;51.984;21.208;2022-07-29T00:34:44;14.23;11.72
30949;HTU21D;17637;51.984;21.208;2022-07-29T00:40:07;14.37;11.36
30949;HTU21D;17637;51.984;21.208;2022-07-29T00:45:12;14.47;11.18
30949;HTU21D;17637;51.984;21.208;2022-07-29T00:50:16;14.45;10.42
30949;HTU21D;17637;51.984;21.208;2022-07-29T00:55:20;14.51;9.82
30949;HTU21D;17637;51.984;21.208;2022-07-29T01:00:26;14.53;9.24
30949;HTU21D;17637;51.984;21.208;2022-07-29T01:05:30;14.47;8.47
30949;HTU21D;17637;51.984;21.208;2022-07-29T01:10:53;14.21;8.72
30949;HTU21D;17637;51.984;21.208;2022-07-29T01:16:02;14.28;8.69
30949;HTU21D;17637;51.984;21.208;2022-07-29T01:21:24;14.21;8.63
30949;HTU21D;17637;51.984;21.208;2022-07-29T01:26:41;14.24;8.24
30949;HTU21D;17637;51.984;21.208;2022-07-29T01:31:53;14.19;8.05
30949;HTU21D;17637;51.984;21.208;2022-07-29T01:37:06;14.10;7.63
30949;HTU21D;17637;51.984;21.208;2022-07-29T01:42:16;14.05;7.53
30949;HTU21D;17637;51.984;21.208;2022-07-29T01:47:26;13.81;7.44
30949;HTU21D;17637;51.984;21.208;2022-07-29T01:52:34;13.71;7.53
30949;HTU21D;17637;51.984;21.208;2022-07-29T01:57:40;13.63;7.40
30949;HTU21D;17637;51.984;21.208;2022-07-29T02:02:47;13.67;7.58
30949;HTU21D;17637;51.984;21.208;2022-07-29T02:07:51;13.47;7.42
30949;HTU21D;17637;51.984;21.208;2022-07-29T02:12:56;13.37;7.87
30949;HTU21D;17637;51.984;21.208;2022-07-29T02:18:04;13.37;7.21
30949;HTU21D;17637;51.984;21.208;2022-07-29T02:23:10;13.39;7.77
30949;HTU21D;17637;51.984;21.208;2022-07-29T02:28:15;13.37;7.48
30949;HTU21D;17637;51.984;21.208;2022-07-29T02:33:21;13.59;7.39
30949;HTU21D;17637;51.984;21.208;2022-07-29T02:38:27;13.48;7.89
30949;HTU21D;17637;51.984;21.208;2022-07-29T02:43:53;13.41;7.58
30949;HTU21D;17637;51.984;21.208;2022-07-29T02:49:06;13.37;7.47
30949;HTU21D;17637;51.984;21.208;2022-07-29T02:54:20;13.45;7.32
30949;HTU21D;17637;51.984;21.208;2022-07-29T02:59:26;13.45;7.28
30949;HTU21D;17637;51.984;21.208;2022-07-29T03:04:32;13.46;7.09
30949;HTU21D;17637;51.984;21.208;2022-07-29T03:09:37;13.68;7.44
30949;HTU21D;17637;51.984;21.208;2022-07-29T03:14:42;13.76;6.83
30949;HTU21D;17637;51.984;21.208;2022-07-29T03:19:47;13.83;7.02
30949;HTU21D;17637;51.984;21.208;2022-07-29T03:24:51;13.99;7.28
30949;HTU21D;17637;51.984;21.208;2022-07-29T03:29:54;14.22;6.73
30949;HTU21D;17637;51.984;21.208;2022-07-29T03:34:59;14.36;6.01
30949;HTU21D;17637;51.984;21.208;2022-07-29T03:40:03;14.47;5.90
30949;HTU21D;17637;51.984;21.208;2022-07-29T03:45:10;14.43;6.28
30949;HTU21D;17637;51.984;21.208;2022-07-29T03:50:17;14.57;6.11
30949;HTU21D;17637;51.984;21.208;2022-07-29T03:55:22;14.57;5.79
30949;HTU21D;17637;51.984;21.208;2022-07-29T04:00:26;14.78;5.76
30949;HTU21D;17637;51.984;21.208;2022-07-29T04:05:31;14.88;5.52
30949;HTU21D;17637;51.984;21.208;2022-07-29T04:10:34;15.07;4.87
30949;HTU21D;17637;51.984;21.208;2022-07-29T04:15:38;15.26;4.33
30949;HTU21D;17637;51.984;21.208;2022-07-29T04:20:42;15.36;4.63
30949;HTU21D;17637;51.984;21.208;2022-07-29T04:25:45;15.34;5.05
30949;HTU21D;17637;51.984;21.208;2022-07-29T04:30:49;15.38;5.23
30949;HTU21D;17637;51.984;21.208;2022-07-29T04:35:53;15.42;4.74
30949;HTU21D;17637;51.984;21.208;2022-07-29T04:40:57;15.49;4.70
30949;HTU21D;17637;51.984;21.208;2022-07-29T04:46:00;15.62;4.77
30949;HTU21D;17637;51.984;21.208;2022-07-29T04:51:05;15.70;4.29
30949;HTU21D;17637;51.984;21.208;2022-07-29T04:56:08;15.82;4.13
30949;HTU21D;17637;51.984;21.208;2022-07-29T05:01:11;16.07;3.65
30949;HTU21D;17637;51.984;21.208;2022-07-29T05:06:15;16.18;3.47
30949;HTU21D;17637;51.984;21.208;2022-07-29T05:11:19;16.22;3.45
30949;HTU21D;17637;51.984;21.208;2022-07-29T05:16:25;16.57;3.20
30949;HTU21D;17637;51.984;21.208;2022-07-29T05:21:30;16.98;3.03
30949;HTU21D;17637;51.984;21.208;2022-07-29T05:26:33;17.15;2.41
30949;HTU21D;17637;51.984;21.208;2022-07-29T05:31:36;17.78;1.31
30949;HTU21D;17637;51.984;21.208;2022-07-29T05:36:40;18.13;0.64
30949;HTU21D;17637;51.984;21.208;2022-07-29T05:41:44;18.50;-0.19
30949;HTU21D;17637;51.984;21.208;2022-07-29T05:46:53;18.87;-1.48
30949;HTU21D;17637;51.984;21.208;2022-07-29T05:51:58;19.00;-1.72
30949;HTU21D;17637;51.984;21.208;2022-07-29T05:57:00;19.01;-1.96
30949;HTU21D;17637;51.984;21.208;2022-07-29T06:02:04;19.39;-1.83
30949;HTU21D;17637;51.984;21.208;2022-07-29T06:07:13;19.61;-2.79
30949;HTU21D;17637;51.984;21.208;2022-07-29T06:12:16;19.66;-3.53
30949;HTU21D;17637;51.984;21.208;2022-07-29T06:17:19;19.90;-4.05
30949;HTU21D;17637;51.984;21.208;2022-07-29T06:22:24;20.04;-4.40
30949;HTU21D;17637;51.984;21.208;2022-07-29T06:27:27;19.88;-4.32
30949;HTU21D;17637;51.984;21.208;2022-07-29T06:32:30;20.20;-5.95
30949;HTU21D;17637;51.984;21.208;2022-07-29T06:37:35;20.26;-5.73
30949;HTU21D;17637;51.984;21.208;2022-07-29T06:42:42;20.33;-5.98
30949;HTU21D;17637;51.984;21.208;2022-07-29T06:47:45;20.58;118.86
30949;HTU21D;17637;51.984;21.208;2022-07-29T06:52:50;20.72;118.00
30949;HTU21D;17637;51.984;21.208;2022-07-29T06:57:53;20.84;117.92
30949;HTU21D;17637;51.984;21.208;2022-07-29T07:02:56;20.99;117.66
30949;HTU21D;17637;51.984;21.208;2022-07-29T07:08:01;21.38;117.02
30949;HTU21D;17637;51.984;21.208;2022-07-29T07:13:04;21.14;117.40
30949;HTU21D;17637;51.984;21.208;2022-07-29T07:18:08;21.61;116.67
30949;HTU21D;17637;51.984;21.208;2022-07-29T07:23:12;21.38;115.83
30949;HTU21D;17637;51.984;21.208;2022-07-29T07:28:15;22.06;116.18
30949;HTU21D;17637;51.984;21.208;2022-07-29T07:33:19;22.20;114.80
30949;HTU21D;17637;51.984;21.208;2022-07-29T07:38:23;22.10;114.58
30949;HTU21D;17637;51.984;21.208;2022-07-29T07:43:26;22.51;113.93
30949;HTU21D;17637;51.984;21.208;2022-07-29T07:48:29;22.60;114.42
30949;HTU21D;17637;51.984;21.208;2022-07-29T07:53:34;22.95;113.80
30949;HTU21D;17637;51.984;21.208;2022-07-29T07:58:38;22.82;112.98
30949;HTU21D;17637;51.984;21.208;2022-07-29T08:03:41;22.92;112.36
30949;HTU21D;17637;51.984;21.208;2022-07-29T08:08:46;22.84;112.39
30949;HTU21D;17637;51.984;21.208;2022-07-29T08:13:49;23.03;112.89
30949;HTU21D;17637;51.984;21.208;2022-07-29T08:18:52;23.00;110.84
30949;HTU21D;17637;51.984;21.208;2022-07-29T08:24:00;23.51;110.63
30949;HTU21D;17637;51.984;21.208;2022-07-29T08:29:22;23.28;109.34
30949;HTU21D;17637;51.984;21.208;2022-07-29T08:34:25;23.68;111.29
30949;HTU21D;17637;51.984;21.208;2022-07-29T08:39:30;23.75;108.92
30949;HTU21D;17637;51.984;21.208;2022-07-29T08:44:33;23.44;108.92
30949;HTU21D;17637;51.984;21.208;2022-07-29T08:49:37;24.01;107.90
30949;HTU21D;17637;51.984;21.208;2022-07-29T08:54:43;23.50;105.38
30949;HTU21D;17637;51.984;21.208;2022-07-29T08:59:47;24.27;106.37
30949;HTU21D;17637;51.984;21.208;2022-07-29T09:04:53;23.89;104.83
30949;HTU21D;17637;51.984;21.208;2022-07-29T09:09:57;23.59;106.81
30949;HTU21D;17637;51.984;21.208;2022-07-29T09:15:01;23.57;104.30
30949;HTU21D;17637;51.984;21.208;2022-07-29T09:20:09;23.67;104.82
30949;HTU21D;17637;51.984;21.208;2022-07-29T09:25:13;24.11;101.77
30949;HTU21D;17637;51.984;21.208;2022-07-29T09:30:17;23.75;102.28
30949;HTU21D;17637;51.984;21.208;2022-07-29T09:35:32;24.23;98.18
30949;HTU21D;17637;51.984;21.208;2022-07-29T09:40:37;23.96;98.16
30949;HTU21D;17637;51.984;21.208;2022-07-29T09:45:40;24.03;98.83
30949;HTU21D;17637;51.984;21.208;2022-07-29T09:50:45;24.05;98.60
30949;HTU21D;17637;51.984;21.208;2022-07-29T09:55:52;24.44;96.79
30949;HTU21D;17637;51.984;21.208;2022-07-29T10:00:55;24.51;99.57
30949;HTU21D;17637;51.984;21.208;2022-07-29T10:06:06;24.33;93.33
30949;HTU21D;17637;51.984;21.208;2022-07-29T10:11:14;24.40;94.77
30949;HTU21D;17637;51.984;21.208;2022-07-29T10:16:17;24.62;93.69
30949;HTU21D;17637;51.984;21.208;2022-07-29T10:21:21;24.70;92.47
30949;HTU21D;17637;51.984;21.208;2022-07-29T10:26:39;24.50;93.38
30949;HTU21D;17637;51.984;21.208;2022-07-29T10:31:49;24.98;92.14
30949;HTU21D;17637;51.984;21.208;2022-07-29T10:37:03;25.31;88.54
30949;HTU21D;17637;51.984;21.208;2022-07-29T10:42:17;25.52;90.72
30949;HTU21D;17637;51.984;21.208;2022-07-29T10:47:22;25.19;89.47
30949;HTU21D;17637;51.984;21.208;2022-07-29T10:52:54;25.20;88.86
30949;HTU21D;17637;51.984;21.208;2022-07-29T10:58:16;25.57;87.73
30949;HTU21D;17637;51.984;21.208;2022-07-29T11:03:45;25.52;90.60
30949;HTU21D;17637;51.984;21.208;2022-07-29T11:09:15;25.78;90.63
30949;HTU21D;17637;51.984;21.208;2022-07-29T11:14:56;25.84;89.18
30949;HTU21D;17637;51.984;21.208;2022-07-29T11:20:32;25.51;84.88
30949;HTU21D;17637;51.984;21.208;2022-07-29T11:25:37;25.56;88.37
30949;HTU21D;17637;51.984;21.208;2022-07-29T11:30:55;25.80;88.01
30949;HTU21D;17637;51.984;21.208;2022-07-29T11:36:09;25.76;87.36
30949;HTU21D;17637;51.984;21.208;2022-07-29T11:41:25;25.65;87.77
30949;HTU21D;17637;51.984;21.208;2022-07-29T11:46:46;25.81;88.05
30949;HTU21D;17637;51.984;21.208;2022-07-29T11:51:51;25.48;85.72
30949;HTU21D;17637;51.984;21.208;2022-07-29T11:56:54;25.45;88.10
30949;HTU21D;17637;51.984;21.208;2022-07-29T12:01:59;25.68;87.81
30949;HTU21D;17637;51.984;21.208;2022-07-29T12:07:26;25.40;88.80
30949;HTU21D;17637;51.984;21.208;2022-07-29T12:12:36;25.28;83.42
30949;HTU21D;17637;51.984;21.208;2022-07-29T12:17:42;25.33;85.20
30949;HTU21D;17637;51.984;21.208;2022-07-29T12:22:46;25.24;83.65
30949;HTU21D;17637;51.984;21.208;2022-07-29T12:27:58;25.17;83.37
30949;HTU21D;17637;51.984;21.208;2022-07-29T12:33:10;25.24;84.95
30949;HTU21D;17637;51.984;21.208;2022-07-29T12:38:14;25.39;84.45
30949;HTU21D;17637;51.984;21.208;2022-07-29T12:43:19;25.34;86.03
30949;HTU21D;17637;51.984;21.208;2022-07-29T12:48:35;25.07;86.39
30949;HTU21D;17637;51.984;21.208;2022-07-29T12:53:38;25.39;86.51
30949;HTU21D;17637;51.984;21.208;2022-07-29T12:58:42;25.13;83.26
30949;HTU21D;17637;51.984;21.208;2022-07-29T13:03:50;25.27;80.07
30949;HTU21D;17637;51.984;21.208;2022-07-29T13:09:00;25.15;82.09
30949;HTU21D;17637;51.984;21.208;2022-07-29T13:14:04;24.98;82.18
30949;HTU21D;17637;51.984;21.208;2022-07-29T13:19:11;24.94;82.44
30949;HTU21D;17637;51.984;21.208;2022-07-29T13:24:14;25.15;82.23
30949;HTU21D;17637;51.984;21.208;2022-07-29T13:29:21;25.44;81.59
30949;HTU21D;17637;51.984;21.208;2022-07-29T13:34:26;25.25;82.14
30949;HTU21D;17637;51.984;21.208;2022-07-29T13:39:29;25.21;80.11
30949;HTU21D;17637;51.984;21.208;2022-07-29T13:44:32;25.33;80.87
30949;HTU21D;17637;51.984;21.208;2022-07-29T13:49:37;25.17;78.98
30949;HTU21D;17637;51.984;21.208;2022-07-29T13:54:40;25.32;81.40
30949;HTU21D;17637;51.984;21.208;2022-07-29T13:59:44;25.37;79.92
30949;HTU21D;17637;51.984;21.208;2022-07-29T14:04:54;25.60;81.21
30949;HTU21D;17637;51.984;21.208;2022-07-29T14:09:58;25.59;81.52
30949;HTU21D;17637;51.984;21.208;2022-07-29T14:15:01;25.71;82.29
30949;HTU21D;17637;51.984;21.208;2022-07-29T14:20:07;25.92;76.89
30949;HTU21D;17637;51.984;21.208;2022-07-29T14:25:10;25.56;80.66
30949;HTU21D;17637;51.984;21.208;2022-07-29T14:30:16;25.65;78.69
30949;HTU21D;17637;51.984;21.208;2022-07-29T14:35:21;25.66;78.30
30949;HTU21D;17637;51.984;21.208;2022-07-29T14:40:25;25.71;78.05
30949;HTU21D;17637;51.984;21.208;2022-07-29T14:45:28;25.62;78.16
30949;HTU21D;17637;51.984;21.208;2022-07-29T14:50:33;25.38;80.07
30949;HTU21D;17637;51.984;21.208;2022-07-29T14:55:36;25.39;77.31
30949;HTU21D;17637;51.984;21.208;2022-07-29T15:00:39;25.59;78.53
30949;HTU21D;17637;51.984;21.208;2022-07-29T15:05:44;25.50;77.28
30949;HTU21D;17637;51.984;21.208;2022-07-29T15:10:47;25.65;78.57
30949;HTU21D;17637;51.984;21.208;2022-07-29T15:15:50;25.59;78.24
30949;HTU21D;17637;51.984;21.208;2022-07-29T15:20:59;25.60;77.59
30949;HTU21D;17637;51.984;21.208;2022-07-29T15:26:04;25.52;77.38
30949;HTU21D;17637;51.984;21.208;2022-07-29T15:31:07;25.39;78.72
30949;HTU21D;17637;51.984;21.208;2022-07-29T15:36:13;25.25;77.54
30949;HTU21D;17637;51.984;21.208;2022-07-29T15:41:36;24.92;81.14
30949;HTU21D;17637;51.984;21.208;2022-07-29T15:46:39;24.89;80.52
30949;HTU21D;17637;51.984;21.208;2022-07-29T15:52:04;25.18;79.62
30949;HTU21D;17637;51.984;21.208;2022-07-29T15:57:10;25.15;80.30
30949;HTU21D;17637;51.984;21.208;2022-07-29T16:02:14;25.27;79.44
30949;HTU21D;17637;51.984;21.208;2022-07-29T16:07:18;25.38;79.15
30949;HTU21D;17637;51.984;21.208;2022-07-29T16:12:21;25.45;79.40
30949;HTU21D;17637;51.984;21.208;2022-07-29T16:17:25;25.42;78.86
30949;HTU21D;17637;51.984;21.208;2022-07-29T16:22:31;25.38;76.78
30949;HTU21D;17637;51.984;21.208;2022-07-29T16:27:34;25.23;77.53
30949;HTU21D;17637;51.984;21.208;2022-07-29T16:32:39;25.06;78.08
30949;HTU21D;17637;51.984;21.208;2022-07-29T16:37:44;25.44;76.99
30949;HTU21D;17637;51.984;21.208;2022-07-29T16:42:47;26.23;73.68
30949;HTU21D;17637;51.984;21.208;2022-07-29T16:47:53;26.07;73.22
30949;HTU21D;17637;51.984;21.208;2022-07-29T16:53:03;26.62;72.07
30949;HTU21D;17637;51.984;21.208;2022-07-29T16:58:06;25.57;74.13
30949;HTU21D;17637;51.984;21.208;2022-07-29T17:03:09;25.33;77.26
30949;HTU21D;17637;51.984;21.208;2022-07-29T17:08:16;24.88;78.59
30949;HTU21D;17637;51.984;21.208;2022-07-29T17:13:19;24.50;80.02
30949;HTU21D;17637;51.984;21.208;2022-07-29T17:18:22;24.24;82.01
30949;HTU21D;17637;51.984;21.208;2022-07-29T17:23:28;24.05;83.34
30949;HTU21D;17637;51.984;21.208;2022-07-29T17:28:31;23.80;84.04
30949;HTU21D;17637;51.984;21.208;2022-07-29T17:33:35;23.67;84.16
30949;HTU21D;17637;51.984;21.208;2022-07-29T17:38:40;23.57;86.83
30949;HTU21D;17637;51.984;21.208;2022-07-29T17:43:43;23.37;87.62
30949;HTU21D;17637;51.984;21.208;2022-07-29T17:48:46;23.16;88.46
30949;HTU21D;17637;51.984;21.208;2022-07-29T17:53:51;22.94;89.79
30949;HTU21D;17637;51.984;21.208;2022-07-29T17:58:54;22.71;90.89
30949;HTU21D;17637;51.984;21.208;2022-07-29T18:03:58;22.61;90.45
30949;HTU21D;17637;51.984;21.208;2022-07-29T18:09:03;22.52;90.05
30949;HTU21D;17637;51.984;21.208;2022-07-29T18:14:06;22.33;90.46
30949;HTU21D;17637;51.984;21.208;2022-07-29T18:19:09;22.27;91.34
30949;HTU21D;17637;51.984;21.208;2022-07-29T18:24:13;22.19;91.28
30949;HTU21D;17637;51.984;21.208;2022-07-29T18:29:16;22.06;91.76
30949;HTU21D;17637;51.984;21.208;2022-07-29T18:34:20;22.05;92.19
30949;HTU21D;17637;51.984;21.208;2022-07-29T18:39:24;21.97;93.39
30949;HTU21D;17637;51.984;21.208;2022-07-29T18:44:27;21.79;94.23
30949;HTU21D;17637;51.984;21.208;2022-07-29T18:49:30;21.72;94.89
30949;HTU21D;17637;51.984;21.208;2022-07-29T18:54:35;21.64;96.16
30949;HTU21D;17637;51.984;21.208;2022-07-29T18:59:38;21.55;95.50
30949;HTU21D;17637;51.984;21.208;2022-07-29T19:04:41;21.36;96.38
30949;HTU21D;17637;51.984;21.208;2022-07-29T19:09:46;21.30;97.03
30949;HTU21D;17637;51.984;21.208;2022-07-29T19:14:51;21.20;97.34
30949;HTU21D;17637;51.984;21.208;2022-07-29T19:19:54;21.09;98.55
30949;HTU21D;17637;51.984;21.208;2022-07-29T19:24:58;21.05;98.80
30949;HTU21D;17637;51.984;21.208;2022-07-29T19:30:02;20.94;99.06
30949;HTU21D;17637;51.984;21.208;2022-07-29T19:35:08;20.93;99.38
30949;HTU21D;17637;51.984;21.208;2022-07-29T19:40:28;20.85;100.35
30949;HTU21D;17637;51.984;21.208;2022-07-29T19:45:32;20.78;100.09
30949;HTU21D;17637;51.984;21.208;2022-07-29T19:50:35;20.70;100.91
30949;HTU21D;17637;51.984;21.208;2022-07-29T19:55:40;20.61;101.22
30949;HTU21D;17637;51.984;21.208;2022-07-29T20:00:44;20.62;101.57
30949;HTU21D;17637;51.984;21.208;2022-07-29T20:05:47;20.57;101.53
30949;HTU21D;17637;51.984;21.208;2022-07-29T20:10:55;20.54;101.91
30949;HTU21D;17637;51.984;21.208;2022-07-29T20:15:59;20.51;102.22
30949;HTU21D;17637;51.984;21.208;2022-07-29T20:21:02;20.49;102.20
30949;HTU21D;17637;51.984;21.208;2022-07-29T20:26:07;20.45;102.50
30949;HTU21D;17637;51.984;21.208;2022-07-29T20:31:11;20.33;102.70
30949;HTU21D;17637;51.984;21.208;2022-07-29T20:36:17;20.41;102.48
30949;HTU21D;17637;51.984;21.208;2022-07-29T20:41:22;20.28;103.33
30949;HTU21D;17637;51.984;21.208;2022-07-29T20:46:25;20.29;103.24
30949;HTU21D;17637;51.984;21.208;2022-07-29T20:51:28;20.24;103.53
30949;HTU21D;17637;51.984;21.208;2022-07-29T20:56:32;20.18;104.31
30949;HTU21D;17637;51.984;21.208;2022-07-29T21:01:35;20.01;104.52
30949;HTU21D;17637;51.984;21.208;2022-07-29T21:06:38;20.00;104.86
30949;HTU21D;17637;51.984;21.208;2022-07-29T21:11:43;19.91;105.21
30949;HTU21D;17637;51.984;21.208;2022-07-29T21:16:46;19.86;105.56
30949;HTU21D;17637;51.984;21.208;2022-07-29T21:21:50;19.75;106.39
30949;HTU21D;17637;51.984;21.208;2022-07-29T21:26:55;19.66;106.66
30949;HTU21D;17637;51.984;21.208;2022-07-29T21:32:23;19.56;107.37
30949;HTU21D;17637;51.984;21.208;2022-07-29T21:37:31;19.55;106.69
30949;HTU21D;17637;51.984;21.208;2022-07-29T21:42:36;19.36;107.69
30949;HTU21D;17637;51.984;21.208;2022-07-29T21:47:39;19.32;108.15
30949;HTU21D;17637;51.984;21.208;2022-07-29T21:52:42;19.20;108.70
30949;HTU21D;17637;51.984;21.208;2022-07-29T21:57:47;19.13;108.76
30949;HTU21D;17637;51.984;21.208;2022-07-29T22:02:50;19.09;108.59
30949;HTU21D;17637;51.984;21.208;2022-07-29T22:07:53;19.15;108.60
30949;HTU21D;17637;51.984;21.208;2022-07-29T22:13:00;19.09;108.56
30949;HTU21D;17637;51.984;21.208;2022-07-29T22:18:05;19.11;108.90
30949;HTU21D;17637;51.984;21.208;2022-07-29T22:23:08;19.16;108.79
30949;HTU21D;17637;51.984;21.208;2022-07-29T22:28:12;19.08;109.35
30949;HTU21D;17637;51.984;21.208;2022-07-29T22:33:15;19.07;109.43
30949;HTU21D;17637;51.984;21.208;2022-07-29T22:38:19;19.13;109.10
30949;HTU21D;17637;51.984;21.208;2022-07-29T22:43:24;19.21;108.82
30949;HTU21D;17637;51.984;21.208;2022-07-29T22:48:27;19.17;109.10
30949;HTU21D;17637;51.984;21.208;2022-07-29T22:53:30;19.16;108.95
30949;HTU21D;17637;51.984;21.208;2022-07-29T22:58:35;19.18;108.72
30949;HTU21D;17637;51.984;21.208;2022-07-29T23:03:38;19.08;108.38
30949;HTU21D;17637;51.984;21.208;2022-07-29T23:08:41;19.09;107.78
30949;HTU21D;17637;51.984;21.208;2022-07-29T23:13:46;19.21;107.30
30949;HTU21D;17637;51.984;21.208;2022-07-29T23:18:49;19.18;107.56
30949;HTU21D;17637;51.984;21.208;2022-07-29T23:23:53;19.26;106.53
30949;HTU21D;17637;51.984;21.208;2022-07-29T23:28:58;19.23;106.84
30949;HTU21D;17637;51.984;21.208;2022-07-29T23:34:01;19.23;106.96
30949;HTU21D;17637;51.984;21.208;2022-07-29T23:39:05;19.26;107.00
30949;HTU21D;17637;51.984;21.208;2022-07-29T23:44:14;19.30;106.90
30949;HTU21D;17637;51.984;21.208;2022-07-29T23:49:17;19.23;107.18
30949;HTU21D;17637;51.984;21.208;2022-07-29T23:54:20;19.21;107.40
30949;HTU21D;17637;51.984;21.208;2022-07-29T23:59:25;19.23;107.42
